createdAt,value
2017-10-07T00:01:04.164Z,84.60
2017-10-07T00:03:32.670Z,84.50
2017-10-07T00:06:00.810Z,84.30
2017-10-07T00:08:29.132Z,84.10
2017-10-07T00:10:57.268Z,83.80
2017-10-07T00:13:25.398Z,83.70
2017-10-07T00:15:53.539Z,83.50
2017-10-07T00:18:21.692Z,83.70
2017-10-07T00:20:49.820Z,83.80
2017-10-07T00:23:17.946Z,83.70
2017-10-07T00:25:46.539Z,83.50
2017-10-07T00:28:14.688Z,83.50
2017-10-07T00:30:42.818Z,83.60
2017-10-07T00:33:10.971Z,83.50
2017-10-07T00:35:39.846Z,83.40
2017-10-07T00:38:07.995Z,83.40
2017-10-07T00:40:36.169Z,83.30
2017-10-07T00:43:04.729Z,83.20
2017-10-07T00:45:32.868Z,83.30
2017-10-07T00:48:01.039Z,83.20
2017-10-07T00:50:30.378Z,83.40
2017-10-07T00:52:58.523Z,83.30
2017-10-07T00:55:26.968Z,83.30
2017-10-07T00:57:55.226Z,83.10
2017-10-07T01:00:23.482Z,83.20
2017-10-07T01:02:51.674Z,84.10
2017-10-07T01:05:19.840Z,83.60
2017-10-07T01:07:48.022Z,83.70
2017-10-07T01:10:16.592Z,83.60
2017-10-07T01:12:47.447Z,83.70
2017-10-07T01:15:15.647Z,83.60
2017-10-07T01:17:43.810Z,83.80
2017-10-07T01:20:12.046Z,83.90
2017-10-07T01:22:40.254Z,83.90
2017-10-07T01:25:08.482Z,84.00
2017-10-07T01:27:37.831Z,84.00
2017-10-07T01:30:06.077Z,84.00
2017-10-07T01:32:34.330Z,84.00
2017-10-07T01:35:02.519Z,84.20
2017-10-07T01:37:30.713Z,84.30
2017-10-07T01:39:58.866Z,84.40
2017-10-07T01:42:27.326Z,85.30
2017-10-07T01:44:55.477Z,84.60
2017-10-07T01:47:23.618Z,84.90
2017-10-07T01:49:51.761Z,85.10
2017-10-07T01:52:19.896Z,85.30
2017-10-07T01:54:48.048Z,85.70
2017-10-07T01:57:16.830Z,85.90
2017-10-07T01:59:44.970Z,86.10
2017-10-07T02:02:13.118Z,86.10
2017-10-07T02:04:42.314Z,86.20
2017-10-07T02:07:10.419Z,86.10
2017-10-07T02:09:38.547Z,86.10
2017-10-07T02:12:06.690Z,86.30
2017-10-07T02:14:34.810Z,86.40
2017-10-07T02:17:02.940Z,86.40
2017-10-07T02:19:31.082Z,87.60
2017-10-07T02:21:59.206Z,86.80
2017-10-07T02:24:27.691Z,86.80
2017-10-07T02:26:55.833Z,86.80
2017-10-07T02:29:23.974Z,86.80
2017-10-07T02:31:52.122Z,86.50
2017-10-07T02:34:20.252Z,86.50
2017-10-07T02:36:48.392Z,86.50
2017-10-07T02:39:16.531Z,87.10
2017-10-07T02:41:45.095Z,87.60
2017-10-07T02:44:13.198Z,87.70
2017-10-07T02:46:41.319Z,87.80
2017-10-07T02:49:09.431Z,87.80
2017-10-07T02:51:38.306Z,87.90
2017-10-07T02:54:06.422Z,87.80
2017-10-07T02:56:35.304Z,88.30
2017-10-07T02:59:04.425Z,89.10
2017-10-07T03:01:32.568Z,88.10
2017-10-07T03:04:00.688Z,88.20
2017-10-07T03:06:29.267Z,87.90
2017-10-07T03:08:57.410Z,87.80
2017-10-07T03:11:26.299Z,87.90
2017-10-07T03:13:55.183Z,87.80
2017-10-07T03:16:23.341Z,87.80
2017-10-07T03:18:51.434Z,87.80
2017-10-07T03:21:19.571Z,87.70
2017-10-07T03:23:47.709Z,87.30
2017-10-07T03:26:16.158Z,87.40
2017-10-07T03:28:44.298Z,87.30
2017-10-07T03:31:12.443Z,87.20
2017-10-07T03:33:40.578Z,87.90
2017-10-07T03:36:08.682Z,87.30
2017-10-07T03:38:36.884Z,87.50
2017-10-07T03:41:05.451Z,87.50
2017-10-07T03:43:33.635Z,87.50
2017-10-07T03:46:01.812Z,87.50
2017-10-07T03:48:29.983Z,87.40
2017-10-07T03:50:58.148Z,87.30
2017-10-07T03:53:26.335Z,87.30
2017-10-07T03:55:54.446Z,87.20
2017-10-07T03:58:23.314Z,86.90
2017-10-07T04:00:51.672Z,86.90
2017-10-07T04:03:20.153Z,87.00
2017-10-07T04:05:48.287Z,87.00
2017-10-07T04:08:16.391Z,87.20
2017-10-07T04:10:44.518Z,87.10
2017-10-07T04:13:12.667Z,86.90
2017-10-07T04:15:40.779Z,86.90
2017-10-07T04:18:08.882Z,87.00
2017-10-07T04:20:36.999Z,86.60
2017-10-07T04:23:05.478Z,86.40
2017-10-07T04:25:33.619Z,86.40
2017-10-07T04:28:01.767Z,86.30
2017-10-07T04:30:30.083Z,86.30
2017-10-07T04:32:58.220Z,86.10
2017-10-07T04:35:27.126Z,85.60
2017-10-07T04:37:55.240Z,85.60
2017-10-07T04:40:23.374Z,85.80
2017-10-07T04:42:51.515Z,85.90
2017-10-07T04:45:20.431Z,85.60
2017-10-07T04:47:48.622Z,85.50
2017-10-07T04:50:17.199Z,85.40
2017-10-07T04:52:45.335Z,85.20
2017-10-07T04:55:13.443Z,85.00
2017-10-07T04:57:41.572Z,85.00
2017-10-07T05:00:09.798Z,85.10
2017-10-07T05:02:38.002Z,85.10
2017-10-07T05:05:06.173Z,85.30
2017-10-07T05:07:34.313Z,85.10
2017-10-07T05:10:02.422Z,85.10
2017-10-07T05:12:31.079Z,85.30
2017-10-07T05:14:59.252Z,85.30
2017-10-07T05:17:27.406Z,85.40
2017-10-07T05:19:55.575Z,85.50
2017-10-07T05:22:23.708Z,85.60
2017-10-07T05:24:51.840Z,85.40
2017-10-07T05:27:20.015Z,85.40
2017-10-07T05:29:48.106Z,85.30
2017-10-07T05:32:16.490Z,85.00
2017-10-07T05:34:44.629Z,84.90
2017-10-07T05:37:12.764Z,84.90
2017-10-07T05:39:40.940Z,85.00
2017-10-07T05:42:09.079Z,84.90
2017-10-07T05:44:37.198Z,84.70
2017-10-07T05:47:06.062Z,84.50
2017-10-07T05:49:34.161Z,84.40
2017-10-07T05:52:03.089Z,84.50
2017-10-07T05:54:31.209Z,84.40
2017-10-07T05:56:59.347Z,84.30
2017-10-07T05:59:27.764Z,84.00
2017-10-07T06:01:55.875Z,83.80
2017-10-07T06:04:24.412Z,84.10
2017-10-07T06:06:52.516Z,83.30
2017-10-07T06:09:20.838Z,83.30
2017-10-07T06:11:49.027Z,83.30
2017-10-07T06:14:17.174Z,83.40
2017-10-07T06:16:45.314Z,83.00
2017-10-07T06:19:13.483Z,82.90
2017-10-07T06:21:42.350Z,83.30
2017-10-07T06:24:10.554Z,82.50
2017-10-07T06:26:39.138Z,82.40
2017-10-07T06:29:08.023Z,81.90
2017-10-07T06:31:36.933Z,82.00
2017-10-07T06:34:05.055Z,81.90
2017-10-07T06:36:33.195Z,81.90
2017-10-07T06:39:01.330Z,82.30
2017-10-07T06:41:29.522Z,82.50
2017-10-07T06:43:57.674Z,83.30
2017-10-07T06:46:25.787Z,82.40
2017-10-07T06:48:53.934Z,81.90
2017-10-07T06:51:22.520Z,82.10
2017-10-07T06:53:51.409Z,81.80
2017-10-07T06:56:20.322Z,81.70
2017-10-07T06:58:48.476Z,81.60
2017-10-07T07:01:16.651Z,81.50
2017-10-07T07:03:45.558Z,81.60
2017-10-07T07:06:14.291Z,81.40
2017-10-07T07:08:42.418Z,81.30
2017-10-07T07:11:10.550Z,81.20
2017-10-07T07:13:38.628Z,81.00
2017-10-07T07:16:06.767Z,80.90
2017-10-07T07:18:35.252Z,80.50
2017-10-07T07:21:03.395Z,80.40
2017-10-07T07:23:31.694Z,80.20
2017-10-07T07:25:59.810Z,79.70
2017-10-07T07:28:27.942Z,79.40
2017-10-07T07:30:56.125Z,79.30
2017-10-07T07:33:24.258Z,79.50
2017-10-07T07:35:52.394Z,78.90
2017-10-07T07:38:20.533Z,78.90
2017-10-07T07:40:48.675Z,78.80
2017-10-07T07:43:17.134Z,79.30
2017-10-07T07:45:46.353Z,79.80
2017-10-07T07:48:14.497Z,79.10
2017-10-07T07:50:42.631Z,79.60
2017-10-07T07:53:10.770Z,79.90
2017-10-07T07:55:38.932Z,80.40
2017-10-07T07:58:07.842Z,81.10
2017-10-07T08:00:36.729Z,81.10
2017-10-07T08:03:05.654Z,80.90
2017-10-07T08:05:34.127Z,80.90
2017-10-07T08:08:02.534Z,80.70
2017-10-07T08:10:30.678Z,80.80
2017-10-07T08:12:58.829Z,80.80
2017-10-07T08:15:26.958Z,80.60
2017-10-07T08:17:55.094Z,80.40
2017-10-07T08:20:23.238Z,81.00
2017-10-07T08:22:51.647Z,80.40
2017-10-07T08:25:19.786Z,80.30
2017-10-07T08:27:47.999Z,80.40
2017-10-07T08:30:18.342Z,80.00
2017-10-07T08:32:46.459Z,80.10
2017-10-07T08:35:14.603Z,80.40
2017-10-07T08:37:43.326Z,80.40
2017-10-07T08:40:12.527Z,80.10
2017-10-07T08:42:40.662Z,80.10
2017-10-07T08:45:08.790Z,80.20
2017-10-07T08:47:36.911Z,80.60
2017-10-07T08:50:05.086Z,81.20
2017-10-07T08:52:33.280Z,81.40
2017-10-07T08:55:01.430Z,81.10
2017-10-07T08:57:29.571Z,81.30
2017-10-07T08:59:57.711Z,81.50
2017-10-07T09:02:26.338Z,81.50
2017-10-07T09:04:54.455Z,81.60
2017-10-07T09:07:23.303Z,82.40
2017-10-07T09:09:51.516Z,82.30
2017-10-07T09:12:19.654Z,82.40
2017-10-07T09:14:47.764Z,82.50
2017-10-07T09:17:16.347Z,83.40
2017-10-07T09:19:44.521Z,82.90
2017-10-07T09:22:12.657Z,83.00
2017-10-07T09:24:40.820Z,83.00
2017-10-07T09:27:08.982Z,82.90
2017-10-07T09:29:37.426Z,82.80
2017-10-07T09:32:07.022Z,82.30
2017-10-07T09:34:35.177Z,82.30
2017-10-07T09:37:03.302Z,82.40
2017-10-07T09:39:31.474Z,82.50
2017-10-07T09:42:00.372Z,82.00
2017-10-07T09:44:28.510Z,81.90
2017-10-07T09:46:56.624Z,82.30
2017-10-07T09:49:25.160Z,82.30
2017-10-07T09:51:53.291Z,82.50
2017-10-07T09:54:21.406Z,82.90
2017-10-07T09:56:49.575Z,82.80
2017-10-07T09:59:17.709Z,82.40
2017-10-07T10:01:45.846Z,82.40
2017-10-07T10:04:14.031Z,82.00
2017-10-07T10:06:42.883Z,82.20
2017-10-07T10:09:11.037Z,82.10
2017-10-07T10:11:39.601Z,82.30
2017-10-07T10:14:08.054Z,82.30
2017-10-07T10:16:36.946Z,83.00
2017-10-07T10:19:05.820Z,83.10
2017-10-07T10:21:33.937Z,83.00
2017-10-07T10:24:02.043Z,83.20
2017-10-07T10:26:30.198Z,83.10
2017-10-07T10:28:58.326Z,83.10
2017-10-07T10:31:27.183Z,83.30
2017-10-07T10:33:55.320Z,82.70
2017-10-07T10:36:23.422Z,83.00
2017-10-07T10:38:51.839Z,83.00
2017-10-07T10:41:20.218Z,82.70
2017-10-07T10:43:48.359Z,83.70
2017-10-07T10:46:16.507Z,82.90
2017-10-07T10:48:44.643Z,83.10
2017-10-07T10:51:12.815Z,83.30
2017-10-07T10:53:42.157Z,83.10
2017-10-07T10:56:10.282Z,83.10
2017-10-07T10:58:39.927Z,82.40
2017-10-07T11:01:08.066Z,82.40
2017-10-07T11:03:36.199Z,82.80
2017-10-07T11:06:04.310Z,82.90
2017-10-07T11:08:32.442Z,83.10
2017-10-07T11:11:00.600Z,83.30
2017-10-07T11:13:29.370Z,83.10
2017-10-07T11:15:57.527Z,83.00
2017-10-07T11:18:25.652Z,82.90
2017-10-07T11:20:53.798Z,82.60
2017-10-07T11:23:21.962Z,82.50
2017-10-07T11:25:50.110Z,82.40
2017-10-07T11:28:18.249Z,82.90
2017-10-07T11:30:46.455Z,83.40
2017-10-07T11:33:14.878Z,83.70
2017-10-07T11:35:43.026Z,84.40
2017-10-07T11:38:11.911Z,85.10
2017-10-07T11:40:41.302Z,85.60
2017-10-07T11:43:09.430Z,85.40
2017-10-07T11:45:37.878Z,85.50
2017-10-07T11:48:06.027Z,85.90
2017-10-07T11:50:34.175Z,86.30
2017-10-07T11:53:02.515Z,86.30
2017-10-07T11:55:30.651Z,86.30
2017-10-07T11:57:58.786Z,86.20
2017-10-07T12:00:26.928Z,86.50
2017-10-07T12:02:55.067Z,86.20
2017-10-07T12:05:23.711Z,86.50
2017-10-07T12:07:51.837Z,86.60
2017-10-07T12:10:19.978Z,86.60
2017-10-07T12:12:48.122Z,86.60
2017-10-07T12:15:16.675Z,86.30
2017-10-07T12:17:45.575Z,86.00
2017-10-07T12:20:14.467Z,86.30
2017-10-07T12:22:43.799Z,86.50
2017-10-07T12:25:11.914Z,86.30
2017-10-07T12:27:40.074Z,86.80
2017-10-07T12:30:08.211Z,86.60
2017-10-07T12:32:36.382Z,86.40
2017-10-07T12:35:04.518Z,86.60
2017-10-07T12:37:32.626Z,86.90
2017-10-07T12:40:00.747Z,86.50
2017-10-07T12:42:28.993Z,86.80
2017-10-07T12:44:57.448Z,87.10
2017-10-07T12:47:26.815Z,86.60
2017-10-07T12:49:55.747Z,86.50
2017-10-07T12:52:23.840Z,86.80
2017-10-07T12:54:51.955Z,87.20
2017-10-07T12:57:20.115Z,87.30
2017-10-07T12:59:48.227Z,87.30
2017-10-07T13:02:17.092Z,87.90
2017-10-07T13:04:45.195Z,87.80
2017-10-07T13:07:14.054Z,87.70
2017-10-07T13:09:42.181Z,87.60
2017-10-07T13:12:10.645Z,87.20
2017-10-07T13:14:38.774Z,87.10
2017-10-07T13:17:07.161Z,86.80
2017-10-07T13:19:35.290Z,87.00
2017-10-07T13:22:03.382Z,86.90
2017-10-07T13:24:31.503Z,87.10
2017-10-07T13:26:59.642Z,87.50
2017-10-07T13:29:27.751Z,87.50
2017-10-07T13:31:57.112Z,87.60
2017-10-07T13:34:25.331Z,88.30
2017-10-07T13:36:54.235Z,87.70
2017-10-07T13:39:22.354Z,87.70
2017-10-07T13:41:50.498Z,88.10
2017-10-07T13:44:18.610Z,88.50
2017-10-07T13:46:46.743Z,88.40
2017-10-07T13:49:14.854Z,88.50
2017-10-07T13:51:42.972Z,88.10
2017-10-07T13:54:11.078Z,88.90
2017-10-07T13:56:39.534Z,89.50
2017-10-07T13:59:07.682Z,89.60
2017-10-07T14:01:36.544Z,89.90
2017-10-07T14:04:04.670Z,89.80
2017-10-07T14:06:33.181Z,89.70
2017-10-07T14:09:01.394Z,89.60
2017-10-07T14:11:29.615Z,89.50
2017-10-07T14:13:57.752Z,89.60
2017-10-07T14:16:26.658Z,89.50
2017-10-07T14:18:54.987Z,89.50
2017-10-07T14:21:23.180Z,89.50
2017-10-07T14:23:51.316Z,89.70
2017-10-07T14:26:19.431Z,90.00
2017-10-07T14:28:47.562Z,90.30
2017-10-07T14:31:15.703Z,90.50
2017-10-07T14:33:44.630Z,91.00
2017-10-07T14:36:12.791Z,91.00
2017-10-07T14:38:41.219Z,91.30
2017-10-07T14:41:10.903Z,91.70
2017-10-07T14:43:39.075Z,91.60
2017-10-07T14:46:07.218Z,92.00
2017-10-07T14:48:35.346Z,92.10
2017-10-07T14:51:04.994Z,92.70
2017-10-07T14:53:33.126Z,92.70
2017-10-07T14:56:01.242Z,92.50
2017-10-07T14:58:29.346Z,92.70
2017-10-07T15:00:57.926Z,92.80
2017-10-07T15:03:26.395Z,93.00
2017-10-07T15:05:54.542Z,93.10
2017-10-07T15:10:59.953Z,93.40
2017-10-07T15:13:28.195Z,93.80
2017-10-07T15:15:56.312Z,93.80
2017-10-07T15:18:24.463Z,93.90
2017-10-07T15:20:53.092Z,94.10
2017-10-07T15:23:21.606Z,94.00
2017-10-07T15:25:49.724Z,94.40
2017-10-07T15:28:17.842Z,94.40
2017-10-07T15:30:45.984Z,94.60
2017-10-07T15:33:14.094Z,94.60
2017-10-07T15:35:42.398Z,94.60
2017-10-07T15:38:10.514Z,94.50
2017-10-07T15:40:38.718Z,94.60
2017-10-07T15:43:07.015Z,94.70
2017-10-07T15:45:35.145Z,94.90
2017-10-07T15:48:03.884Z,95.00
2017-10-07T15:50:32.091Z,95.40
2017-10-07T15:53:00.230Z,95.60
2017-10-07T15:55:28.790Z,95.60
2017-10-07T15:57:56.995Z,95.90
2017-10-07T16:00:25.126Z,96.10
2017-10-07T16:02:53.558Z,96.30
2017-10-07T16:05:21.875Z,96.30
2017-10-07T16:07:50.477Z,97.10
2017-10-07T16:10:18.659Z,96.30
2017-10-07T16:12:46.818Z,96.30
2017-10-07T16:15:14.979Z,96.60
2017-10-07T16:17:43.098Z,97.00
2017-10-07T16:20:11.250Z,97.50
2017-10-07T16:22:39.886Z,97.50
2017-10-07T16:25:08.031Z,97.30
2017-10-07T16:27:36.154Z,97.50
2017-10-07T16:30:04.316Z,97.30
2017-10-07T16:32:32.836Z,97.20
2017-10-07T16:35:01.387Z,97.10
2017-10-07T16:37:29.543Z,97.30
2017-10-07T16:39:57.767Z,97.20
2017-10-07T16:42:25.938Z,97.30
2017-10-07T16:44:54.055Z,97.40
2017-10-07T16:47:22.247Z,97.20
2017-10-07T16:49:50.355Z,97.40
2017-10-07T16:52:18.470Z,97.40
2017-10-07T16:54:46.634Z,97.60
2017-10-07T16:57:15.163Z,97.60
2017-10-07T16:59:43.279Z,97.80
2017-10-07T17:02:12.167Z,97.80
2017-10-07T17:04:40.379Z,97.70
2017-10-07T17:07:08.583Z,97.90
2017-10-07T17:09:36.783Z,97.90
2017-10-07T17:12:04.982Z,98.30
2017-10-07T17:14:33.156Z,98.60
2017-10-07T17:17:01.335Z,98.80
2017-10-07T17:19:29.961Z,98.80
2017-10-07T17:21:58.866Z,98.70
2017-10-07T17:24:28.368Z,98.60
2017-10-07T17:27:00.387Z,98.40
2017-10-07T17:29:28.563Z,98.40
2017-10-07T17:31:56.703Z,98.40
2017-10-07T17:34:24.838Z,98.20
2017-10-07T17:36:52.982Z,98.10
2017-10-07T17:39:21.127Z,98.20
2017-10-07T17:41:49.258Z,98.30
2017-10-07T17:44:17.702Z,98.30
2017-10-07T17:46:48.882Z,98.50
2017-10-07T17:49:17.049Z,98.50
2017-10-07T17:51:45.194Z,98.40
2017-10-07T17:54:13.411Z,98.50
2017-10-07T17:56:42.286Z,98.50
2017-10-07T17:59:10.499Z,98.40
2017-10-07T18:01:38.640Z,98.30
2017-10-07T18:04:06.778Z,98.00
2017-10-07T18:06:35.602Z,97.40
2017-10-07T18:09:04.327Z,97.90
2017-10-07T18:11:33.208Z,97.90
2017-10-07T18:14:02.059Z,98.00
2017-10-07T18:16:30.170Z,98.00
2017-10-07T18:18:59.040Z,98.00
2017-10-07T18:21:27.543Z,98.00
2017-10-07T18:23:56.431Z,98.00
2017-10-07T18:26:25.767Z,98.10
2017-10-07T18:28:53.924Z,98.10
2017-10-07T18:31:22.102Z,98.20
2017-10-07T18:33:50.215Z,98.30
2017-10-07T18:36:18.317Z,98.20
2017-10-07T18:38:46.427Z,98.40
2017-10-07T18:41:14.595Z,98.30
2017-10-07T18:43:42.803Z,98.40
2017-10-07T18:46:10.963Z,98.50
2017-10-07T18:48:39.079Z,98.70
2017-10-07T18:51:07.227Z,98.80
2017-10-07T18:53:35.356Z,98.60
2017-10-07T18:56:03.513Z,98.60
2017-10-07T18:58:32.087Z,98.70
2017-10-07T19:01:00.982Z,98.80
2017-10-07T19:03:29.934Z,98.90
2017-10-07T19:05:58.103Z,98.90
2017-10-07T19:08:26.265Z,99.00
2017-10-07T19:10:54.435Z,98.90
2017-10-07T19:13:22.563Z,99.00
2017-10-07T19:15:50.717Z,98.90
2017-10-07T19:18:20.775Z,99.10
2017-10-07T19:20:48.945Z,99.00
2017-10-07T19:23:17.062Z,99.40
2017-10-07T19:25:45.450Z,99.60
2017-10-07T19:28:13.926Z,99.60
2017-10-07T19:30:42.062Z,99.70
2017-10-07T19:33:10.219Z,99.60
2017-10-07T19:35:39.129Z,99.60
2017-10-07T19:38:07.266Z,99.60
2017-10-07T19:40:35.399Z,99.60
2017-10-07T19:43:03.823Z,99.70
2017-10-07T19:45:31.958Z,99.70
2017-10-07T19:48:00.393Z,99.90
2017-10-07T19:50:28.546Z,99.90
2017-10-07T19:52:56.680Z,99.90
2017-10-07T19:55:24.793Z,99.90
2017-10-07T19:57:52.923Z,99.90
2017-10-07T20:00:21.078Z,99.90
2017-10-07T20:02:49.546Z,99.90
2017-10-07T20:05:17.688Z,99.90
2017-10-07T20:07:45.888Z,99.90
2017-10-07T20:10:14.752Z,99.90
2017-10-07T20:12:42.934Z,99.90
2017-10-07T20:15:11.594Z,99.90
2017-10-07T20:17:40.317Z,99.90
2017-10-07T20:20:08.962Z,99.90
2017-10-07T20:22:37.094Z,99.90
2017-10-07T20:25:05.244Z,99.90
2017-10-07T20:27:33.358Z,99.90
2017-10-07T20:30:02.019Z,99.80
2017-10-07T20:32:30.922Z,99.90
2017-10-07T20:34:59.048Z,99.90
2017-10-07T20:37:27.182Z,99.90
2017-10-07T20:39:55.434Z,99.90
2017-10-07T20:42:24.314Z,99.90
2017-10-07T20:44:52.455Z,99.90
2017-10-07T20:47:20.970Z,99.90
2017-10-07T20:49:49.974Z,99.90
2017-10-07T20:52:18.102Z,99.90
2017-10-07T20:54:46.243Z,99.90
2017-10-07T20:57:14.370Z,99.90
2017-10-07T20:59:42.483Z,99.90
2017-10-07T21:02:10.659Z,99.90
2017-10-07T21:04:38.807Z,99.90
2017-10-07T21:07:07.246Z,99.90
2017-10-07T21:09:35.378Z,99.90
2017-10-07T21:12:03.522Z,99.90
2017-10-07T21:14:31.672Z,99.80
2017-10-07T21:16:59.803Z,99.90
2017-10-07T21:19:28.079Z,99.50
2017-10-07T21:21:56.218Z,99.50
2017-10-07T21:24:24.662Z,99.40
2017-10-07T21:26:54.127Z,99.30
2017-10-07T21:29:22.303Z,99.30
2017-10-07T21:31:51.130Z,99.50
2017-10-07T21:34:19.265Z,99.80
2017-10-07T21:36:47.587Z,99.90
2017-10-07T21:39:16.125Z,99.90
2017-10-07T21:41:44.314Z,99.90
2017-10-07T21:44:12.482Z,99.90
2017-10-07T21:46:40.659Z,99.90
2017-10-07T21:49:08.837Z,99.90
2017-10-07T21:51:37.002Z,99.90
2017-10-07T21:54:05.158Z,99.90
2017-10-07T21:56:34.150Z,99.90
2017-10-07T21:59:03.311Z,99.90
2017-10-07T22:01:31.727Z,99.90
2017-10-07T22:03:59.905Z,99.90
2017-10-07T22:06:28.046Z,99.90
2017-10-07T22:08:56.210Z,99.90
2017-10-07T22:11:24.370Z,99.90
2017-10-07T22:13:52.497Z,99.90
2017-10-07T22:16:20.611Z,99.90
2017-10-07T22:18:49.018Z,99.90
2017-10-07T22:21:17.158Z,99.90
2017-10-07T22:23:45.265Z,99.90
2017-10-07T22:26:13.372Z,99.90
2017-10-07T22:28:42.224Z,99.90
2017-10-07T22:31:10.351Z,99.90
2017-10-07T22:33:38.821Z,99.80
2017-10-07T22:36:07.790Z,99.80
2017-10-07T22:38:36.398Z,99.80
2017-10-07T22:41:05.310Z,99.90
2017-10-07T22:43:33.434Z,99.90
2017-10-07T22:46:01.560Z,99.90
2017-10-07T22:48:29.712Z,99.90
2017-10-07T22:50:58.625Z,99.90
2017-10-07T22:53:26.795Z,99.90
2017-10-07T22:55:55.203Z,99.90
2017-10-07T22:58:23.386Z,99.90
2017-10-07T23:00:51.949Z,99.90
2017-10-07T23:03:20.059Z,99.90
2017-10-07T23:05:48.150Z,99.90
2017-10-07T23:08:16.704Z,99.90
2017-10-07T23:10:44.805Z,99.90
2017-10-07T23:13:13.662Z,99.60
2017-10-07T23:15:41.791Z,99.50
2017-10-07T23:18:09.895Z,99.50
2017-10-07T23:20:38.031Z,99.50
2017-10-07T23:23:07.771Z,99.50
2017-10-07T23:25:35.918Z,99.40
2017-10-07T23:28:04.055Z,99.30
2017-10-07T23:30:32.982Z,99.20
2017-10-07T23:33:01.115Z,99.20
2017-10-07T23:35:29.293Z,99.10
2017-10-07T23:37:57.466Z,99.30
2017-10-07T23:40:25.603Z,99.10
2017-10-07T23:42:54.020Z,99.30
2017-10-07T23:45:22.169Z,99.10
2017-10-07T23:47:50.287Z,99.20
2017-10-07T23:50:18.570Z,99.30
2017-10-07T23:52:46.706Z,99.40
2017-10-07T23:55:14.847Z,99.30
2017-10-07T23:57:42.991Z,99.20
